Time;durP1;ratioP1;P1;durP2;ratioP2;P2;SDS_P1;SDS_P2;PMS_P1;PMS_P2;Temp;Humidity;BMP_temperature;BMP_pressure;BME280_temperature;BME280_humidity;BME280_pressure;Samples;Min_cycle;Max_cycle;Signal;HPM_P1;HPM_P2
2021/01/10 00:02:09;;;;;;;3.53;2.25;;;;;;;-26.71;75.90;101003.97;4983150;28;20460;-62
2021/01/10 00:04:56;;;;;;;4.00;2.45;;;;;;;-26.69;76.13;100999.19;4990250;28;20101;-62
2021/01/10 00:07:42;;;;;;;6.53;2.40;;;;;;;-26.55;76.97;100998.78;4998202;28;20054;-62
2021/01/10 00:10:29;;;;;;;3.33;2.10;;;;;;;-26.53;76.44;101009.63;4983883;28;20050;-62
2021/01/10 00:13:15;;;;;;;5.13;3.03;;;;;;;-26.53;76.40;101008.75;4987018;28;20057;-62
2021/01/10 00:16:02;;;;;;;4.05;2.53;;;;;;;-26.58;75.03;101009.94;4990784;28;20716;-62
2021/01/10 00:18:49;;;;;;;4.47;1.92;;;;;;;-26.64;74.76;101014.34;4980562;28;20445;-62
2021/01/10 00:21:36;;;;;;;3.60;2.10;;;;;;;-26.57;75.75;101014.16;4985199;28;20047;-62
2021/01/10 00:24:23;;;;;;;5.20;2.58;;;;;;;-26.55;75.77;101016.00;4983431;28;20050;-62
2021/01/10 00:27:13;;;;;;;2.17;1.70;;;;;;;-26.47;75.98;101017.53;4984935;28;20092;-62
2021/01/10 00:30:00;;;;;;;3.65;2.17;;;;;;;-26.43;75.86;101015.34;4997383;28;20137;-62
2021/01/10 00:32:48;;;;;;;2.67;1.65;;;;;;;-26.51;75.03;101020.47;4983321;28;20046;-62
2021/01/10 00:35:35;;;;;;;3.70;3.03;;;;;;;-26.52;73.97;101013.81;4989924;28;20077;-62
2021/01/10 00:38:22;;;;;;;5.00;2.25;;;;;;;-26.58;73.78;101024.72;4976927;28;20054;-62
2021/01/10 00:41:08;;;;;;;5.32;3.05;;;;;;;-26.70;73.25;101008.16;4977622;28;20152;-62
2021/01/10 00:43:54;;;;;;;3.92;1.85;;;;;;;-26.73;74.10;101005.44;4986483;28;20409;-63
2021/01/10 00:46:41;;;;;;;4.15;2.42;;;;;;;-26.70;74.95;100998.31;4991728;28;20053;-62
2021/01/10 00:49:28;;;;;;;7.55;3.00;;;;;;;-26.74;75.53;100998.78;4986795;28;20513;-62
2021/01/10 00:52:14;;;;;;;5.70;2.45;;;;;;;-26.75;75.02;100999.53;4982617;28;20054;-62
2021/01/10 00:55:05;;;;;;;5.60;2.75;;;;;;;-26.74;74.68;100991.41;4985652;28;20057;-63
2021/01/10 00:57:52;;;;;;;7.85;2.65;;;;;;;-26.65;75.91;100991.34;4989395;28;20060;-62
2021/01/10 01:00:42;;;;;;;2.75;2.55;;;;;;;-26.54;76.39;100988.19;4983152;28;20058;-62
2021/01/10 01:03:30;;;;;;;3.47;1.92;;;;;;;-26.55;75.95;100985.63;4983196;28;20161;-62
2021/01/10 01:06:17;;;;;;;4.40;2.60;;;;;;;-26.42;76.86;100995.78;4986019;28;20086;-62
2021/01/10 01:09:05;;;;;;;6.20;3.28;;;;;;;-26.42;76.29;100993.31;4986118;28;20043;-62
2021/01/10 01:11:52;;;;;;;2.30;2.10;;;;;;;-26.35;76.28;100985.69;4981170;28;20054;-62
2021/01/10 01:14:39;;;;;;;2.70;2.05;;;;;;;-26.36;75.57;100985.56;4982169;28;20532;-62
2021/01/10 01:17:25;;;;;;;5.75;2.75;;;;;;;-26.33;75.50;100991.63;4992776;28;20489;-62
2021/01/10 01:20:12;;;;;;;2.85;2.15;;;;;;;-26.39;74.85;100986.16;4972691;28;20054;-62
2021/01/10 01:22:58;;;;;;;3.35;2.20;;;;;;;-26.37;75.40;100987.16;4984389;28;20050;-62
2021/01/10 01:26:01;;;;;;;8.93;4.57;;;;;;;-26.43;75.03;100994.06;4990102;28;20050;-62
2021/01/10 01:28:48;;;;;;;7.00;3.38;;;;;;;-26.59;74.45;100994.31;4990035;28;20050;-62
2021/01/10 01:31:35;;;;;;;6.25;1.83;;;;;;;-26.61;74.97;100994.94;4988331;28;20113;-62
2021/01/10 01:34:22;;;;;;;2.22;1.52;;;;;;;-26.64;74.64;100997.13;4989264;28;20448;-62
2021/01/10 01:37:09;;;;;;;4.68;2.30;;;;;;;-26.65;74.86;100996.25;4985929;28;20054;-62
2021/01/10 01:39:55;;;;;;;1.73;1.60;;;;;;;-26.67;74.75;100987.91;4998538;28;20484;-62
2021/01/10 01:42:45;;;;;;;3.38;2.03;;;;;;;-26.68;74.58;100983.69;4989707;28;20108;-61
2021/01/10 01:45:32;;;;;;;5.95;2.90;;;;;;;-26.62;75.36;100986.69;4982565;28;20395;-62
2021/01/10 01:48:20;;;;;;;4.43;2.75;;;;;;;-26.63;74.92;100989.00;4989365;28;20053;-62
2021/01/10 01:51:07;;;;;;;8.30;3.25;;;;;;;-26.47;75.71;100984.69;4985312;28;20058;-62
2021/01/10 01:53:54;;;;;;;6.28;3.05;;;;;;;-26.47;75.34;100988.00;4987998;28;20039;-62
2021/01/10 01:56:40;;;;;;;3.58;2.38;;;;;;;-26.42;75.66;100990.00;4971781;28;20089;-62
2021/01/10 01:59:27;;;;;;;3.75;2.53;;;;;;;-26.40;75.59;100978.66;4989188;28;20490;-62
2021/01/10 02:02:13;;;;;;;4.53;3.15;;;;;;;-26.44;75.65;100982.47;4998835;28;20068;-62
2021/01/10 02:05:11;;;;;;;6.05;3.38;;;;;;;-26.42;75.85;100975.22;4988733;28;20047;-62
2021/01/10 02:08:04;;;;;;;6.30;1.35;;;;;;;-26.43;75.28;100971.06;4989279;28;20057;-62
2021/01/10 02:10:53;;;;;;;3.63;2.70;;;;;;;-26.51;74.94;100963.84;4986379;28;20047;-62
2021/01/10 02:13:41;;;;;;;2.85;1.60;;;;;;;-26.50;75.45;100957.34;4984032;28;20137;-61
2021/01/10 02:16:27;;;;;;;3.72;2.42;;;;;;;-26.47;74.74;100965.84;4987209;28;20054;-64
2021/01/10 02:19:22;;;;;;;5.70;2.88;;;;;;;-26.45;75.68;100964.38;4993452;28;20058;-62
2021/01/10 02:22:10;;;;;;;6.93;3.17;;;;;;;-26.45;76.18;100958.59;4993225;28;20129;-62
2021/01/10 02:24:58;;;;;;;5.95;3.28;;;;;;;-26.35;76.44;100956.13;4979580;28;20046;-62
2021/01/10 02:27:45;;;;;;;5.25;2.47;;;;;;;-26.36;75.77;100960.94;4993044;28;20120;-62
2021/01/10 02:30:33;;;;;;;4.10;2.03;;;;;;;-26.37;74.99;100961.69;4992305;28;20050;-64
2021/01/10 02:33:26;;;;;;;5.53;2.97;;;;;;;-26.42;75.31;100953.06;4993121;28;20090;-62
2021/01/10 02:36:30;;;;;;;7.60;3.20;;;;;;;-26.45;74.74;100959.44;5006128;28;20055;-61
2021/01/10 02:39:32;;;;;;;2.92;2.22;;;;;;;-26.45;75.53;100961.06;4992025;28;20497;-63
2021/01/10 02:42:34;;;;;;;4.63;2.83;;;;;;;-26.37;76.27;100962.53;4987737;28;20058;-62
2021/01/10 02:45:24;;;;;;;2.08;1.85;;;;;;;-26.42;75.31;100955.53;4992098;28;20054;-62
2021/01/10 02:48:11;;;;;;;4.60;2.30;;;;;;;-26.36;75.88;100954.41;4992533;28;20116;-62
2021/01/10 02:50:57;;;;;;;5.32;2.60;;;;;;;-26.36;75.26;100953.56;4985335;28;20074;-62
2021/01/10 02:53:44;;;;;;;4.53;2.53;;;;;;;-26.37;75.77;100951.84;4989594;28;20049;-62
2021/01/10 02:56:38;;;;;;;6.57;3.10;;;;;;;-26.35;75.51;100951.22;4992524;28;20490;-62
2021/01/10 02:59:27;;;;;;;5.00;2.47;;;;;;;-26.33;75.36;100947.31;4990855;28;20050;-62
2021/01/10 03:02:15;;;;;;;4.53;2.85;;;;;;;-26.28;76.19;100943.63;4988270;28;20054;-63
2021/01/10 03:05:05;;;;;;;7.25;2.78;;;;;;;-26.20;76.89;100942.69;4991692;28;20063;-62
2021/01/10 03:07:52;;;;;;;3.17;1.92;;;;;;;-26.10;77.13;100948.38;4987932;28;20117;-62
2021/01/10 03:10:39;;;;;;;10.27;3.45;;;;;;;-26.05;77.07;100950.50;4988771;28;20054;-62
2021/01/10 03:13:26;;;;;;;7.40;2.63;;;;;;;-25.99;76.93;100945.22;4986830;28;20105;-62
2021/01/10 03:16:13;;;;;;;4.72;2.47;;;;;;;-26.00;76.55;100954.19;4992019;28;20046;-62
2021/01/10 03:19:00;;;;;;;3.90;2.20;;;;;;;-26.00;76.18;100943.47;4978427;28;20490;-62
2021/01/10 03:21:47;;;;;;;4.90;2.20;;;;;;;-25.89;77.17;100950.16;4992242;28;20082;-62
2021/01/10 03:24:33;;;;;;;4.50;2.53;;;;;;;-25.77;77.06;100950.28;4991805;28;20120;-62
2021/01/10 03:27:20;;;;;;;6.13;4.03;;;;;;;-25.71;76.81;100951.66;4991983;28;20133;-62
2021/01/10 03:30:12;;;;;;;11.45;3.70;;;;;;;-25.73;76.14;100943.25;4991731;28;20075;-62
2021/01/10 03:32:59;;;;;;;4.40;2.87;;;;;;;-25.77;75.58;100941.31;4984854;28;20079;-62
2021/01/10 03:35:46;;;;;;;5.22;2.88;;;;;;;-25.73;76.14;100942.38;4988584;28;20281;-62
2021/01/10 03:38:32;;;;;;;4.25;2.97;;;;;;;-25.62;76.68;100931.81;4988353;28;20526;-62
2021/01/10 03:41:19;;;;;;;4.55;2.60;;;;;;;-25.60;76.21;100950.06;4988634;28;20101;-62
2021/01/10 03:44:05;;;;;;;7.60;2.42;;;;;;;-25.58;75.83;100952.63;4976979;28;20050;-62
2021/01/10 03:46:52;;;;;;;6.05;3.58;;;;;;;-25.63;75.40;100949.78;4987907;28;20043;-61
2021/01/10 03:49:39;;;;;;;3.83;2.08;;;;;;;-25.65;74.91;100959.53;4980006;28;20092;-62
2021/01/10 03:52:25;;;;;;;4.53;2.60;;;;;;;-25.68;75.26;100949.44;4987973;28;20109;-63
2021/01/10 03:55:12;;;;;;;5.97;2.38;;;;;;;-25.70;75.44;100950.91;4987467;28;20046;-62
2021/01/10 03:57:58;;;;;;;4.32;2.40;;;;;;;-25.75;75.32;100948.84;4980412;28;20493;-63
2021/01/10 04:00:45;;;;;;;6.00;2.83;;;;;;;-25.60;76.88;100952.53;4989230;28;20054;-63
2021/01/10 04:03:31;;;;;;;4.00;2.70;;;;;;;-25.55;76.77;100952.91;4984492;28;20062;-65
2021/01/10 04:06:18;;;;;;;7.43;2.80;;;;;;;-25.59;75.83;100949.31;5000004;28;20045;-62
2021/01/10 04:09:05;;;;;;;4.22;2.67;;;;;;;-25.58;76.35;100940.31;4990001;28;20046;-62
2021/01/10 04:11:51;;;;;;;6.53;3.00;;;;;;;-25.53;76.10;100947.38;4981384;28;20081;-63
2021/01/10 04:14:38;;;;;;;4.80;3.00;;;;;;;-25.55;76.26;100956.22;4981490;28;20113;-62
2021/01/10 04:17:25;;;;;;;5.85;2.75;;;;;;;-25.58;75.90;100953.53;4990724;28;20101;-62
2021/01/10 04:20:12;;;;;;;4.78;2.35;;;;;;;-25.62;76.06;100953.16;4990827;28;20398;-62
2021/01/10 04:22:59;;;;;;;3.78;1.90;;;;;;;-25.60;75.85;100959.91;4987923;28;20043;-62
2021/01/10 04:25:45;;;;;;;7.43;3.20;;;;;;;-25.55;76.49;100952.91;4996068;28;20133;-62
2021/01/10 04:28:32;;;;;;;6.50;3.67;;;;;;;-25.43;77.36;100944.91;4987185;28;20074;-62
2021/01/10 04:31:18;;;;;;;6.20;3.50;;;;;;;-25.33;77.62;100951.44;4983996;28;20517;-62
2021/01/10 04:34:05;;;;;;;4.80;2.60;;;;;;;-25.16;78.84;100950.31;4983738;28;20057;-62
2021/01/10 04:36:51;;;;;;;6.30;2.70;;;;;;;-24.97;79.02;100942.75;4987758;28;20046;-62
2021/01/10 04:39:38;;;;;;;5.32;2.58;;;;;;;-24.87;78.72;100942.75;4985647;28;20100;-62
2021/01/10 04:42:26;;;;;;;11.07;3.40;;;;;;;-24.78;78.39;100941.00;4989169;28;20042;-62
2021/01/10 04:45:12;;;;;;;7.00;2.70;;;;;;;-24.74;78.26;100940.50;4985991;28;20050;-62
2021/01/10 04:47:59;;;;;;;4.60;2.80;;;;;;;-24.61;78.66;100943.19;4989482;28;20046;-62
2021/01/10 04:50:46;;;;;;;7.28;3.15;;;;;;;-24.51;78.63;100943.91;4986379;28;20108;-62
2021/01/10 04:53:36;;;;;;;11.23;3.17;;;;;;;-24.36;78.92;100940.16;4982904;28;21482;-63
2021/01/10 04:56:28;;;;;;;8.95;3.63;;;;;;;-24.26;78.98;100935.16;4983886;28;20453;-62
2021/01/10 04:59:18;;;;;;;8.38;3.78;;;;;;;-24.18;78.24;100938.22;4987239;28;20062;-63
2021/01/10 05:02:05;;;;;;;7.85;3.08;;;;;;;-24.15;78.38;100931.91;4984427;28;20046;-62
2021/01/10 05:04:54;;;;;;;6.80;3.17;;;;;;;-24.12;78.17;100923.84;4989627;28;20490;-62
2021/01/10 05:07:43;;;;;;;5.88;2.55;;;;;;;-24.05;78.53;100926.06;4990187;28;20125;-61
2021/01/10 05:10:30;;;;;;;4.70;2.97;;;;;;;-24.02;78.28;100926.25;4990023;28;20113;-62
2021/01/10 05:13:17;;;;;;;4.43;2.65;;;;;;;-23.98;78.15;100922.41;4990289;28;20134;-62
2021/01/10 05:16:05;;;;;;;8.95;3.85;;;;;;;-23.91;78.43;100930.44;4985976;28;20066;-62
2021/01/10 05:18:53;;;;;;;5.93;3.22;;;;;;;-23.87;78.62;100924.97;4989578;28;20051;-63
2021/01/10 05:21:40;;;;;;;9.90;4.13;;;;;;;-23.86;78.56;100930.78;4990421;28;20453;-62
2021/01/10 05:24:27;;;;;;;12.13;3.53;;;;;;;-23.86;77.69;100936.56;4989250;28;20477;-63
2021/01/10 05:27:13;;;;;;;8.05;3.55;;;;;;;-23.79;78.43;100932.09;4985918;28;20062;-62
2021/01/10 05:30:01;;;;;;;19.25;3.58;;;;;;;-23.78;77.93;100926.38;4987464;28;20144;-62
2021/01/10 05:32:58;;;;;;;6.47;3.05;;;;;;;-23.76;78.01;100927.38;4989908;28;20426;-62
2021/01/10 05:35:52;;;;;;;5.95;3.45;;;;;;;-23.72;77.70;100932.66;4989081;28;20055;-62
2021/01/10 05:38:38;;;;;;;9.38;3.85;;;;;;;-23.66;78.26;100924.84;4989476;28;20046;-62
2021/01/10 05:41:26;;;;;;;4.63;3.00;;;;;;;-23.61;77.86;100928.47;5003263;28;20050;-62
2021/01/10 05:44:12;;;;;;;7.20;3.60;;;;;;;-23.54;78.75;100919.88;4986342;28;20046;-62
2021/01/10 05:47:04;;;;;;;6.93;2.72;;;;;;;-23.49;78.69;100918.66;4986280;28;20046;-62
2021/01/10 05:49:53;;;;;;;7.75;3.42;;;;;;;-23.43;78.34;100919.09;4983068;28;20062;-63
2021/01/10 05:52:40;;;;;;;11.07;3.00;;;;;;;-23.35;77.98;100926.34;4991665;28;20050;-63
2021/01/10 05:55:26;;;;;;;7.47;3.25;;;;;;;-23.31;78.44;100929.88;4995713;28;20571;-62
2021/01/10 05:58:16;;;;;;;8.68;4.38;;;;;;;-23.33;77.41;100929.75;4991792;28;20494;-62
2021/01/10 06:01:13;;;;;;;6.03;3.88;;;;;;;-23.30;78.23;100916.78;4988605;28;20109;-63
2021/01/10 06:03:59;;;;;;;10.75;3.67;;;;;;;-23.23;78.58;100923.00;4988853;28;20069;-62
2021/01/10 06:06:46;;;;;;;5.57;3.45;;;;;;;-23.17;78.65;100924.31;4993966;28;20078;-62
2021/01/10 06:09:46;;;;;;;9.38;2.63;;;;;;;-23.13;77.96;100917.97;4995147;28;20117;-62
2021/01/10 06:12:33;;;;;;;10.00;4.60;;;;;;;-23.13;77.89;100925.41;4994796;28;20054;-63
2021/01/10 06:15:24;;;;;;;8.10;3.28;;;;;;;-23.08;78.76;100929.94;4989145;28;20059;-62
2021/01/10 06:18:14;;;;;;;7.05;3.45;;;;;;;-23.01;78.46;100930.41;5001788;28;20090;-63
2021/01/10 06:21:05;;;;;;;7.85;3.60;;;;;;;-22.97;78.54;100929.84;4994324;28;20096;-62
2021/01/10 06:23:57;;;;;;;6.20;3.22;;;;;;;-22.92;78.12;100924.47;4989856;28;20491;-63
2021/01/10 06:26:48;;;;;;;8.38;3.35;;;;;;;-22.95;77.51;100923.41;4987689;28;20452;-63
2021/01/10 06:29:39;;;;;;;7.57;3.33;;;;;;;-22.96;78.45;100920.06;4994230;28;20046;-63
2021/01/10 06:32:27;;;;;;;10.70;3.33;;;;;;;-22.79;78.70;100931.97;4989396;28;20054;-63
2021/01/10 06:35:14;;;;;;;9.18;3.38;;;;;;;-22.78;77.96;100922.97;4986707;28;20070;-63
2021/01/10 06:38:02;;;;;;;6.80;3.80;;;;;;;-22.80;78.22;100927.78;4990505;28;20124;-62
2021/01/10 06:41:14;;;;;;;11.45;4.00;;;;;;;-22.75;78.97;100920.69;4994503;28;20136;-63
2021/01/10 06:44:09;;;;;;;8.65;3.47;;;;;;;-22.73;77.84;100916.72;4991096;28;20729;-62
2021/01/10 06:46:55;;;;;;;8.23;3.63;;;;;;;-22.72;77.61;100915.97;4994378;28;20498;-63
2021/01/10 06:49:42;;;;;;;8.88;4.47;;;;;;;-22.72;78.44;100915.09;4990631;28;20416;-62
2021/01/10 06:52:32;;;;;;;8.20;3.97;;;;;;;-22.72;78.59;100911.00;4988906;28;20057;-62
2021/01/10 06:55:19;;;;;;;12.07;4.47;;;;;;;-22.68;78.70;100915.44;4989510;28;20062;-62
2021/01/10 06:58:07;;;;;;;5.70;3.13;;;;;;;-22.60;79.10;100913.47;4992828;28;20053;-62
2021/01/10 07:00:56;;;;;;;7.25;3.13;;;;;;;-22.56;79.58;100913.78;4991500;28;20112;-64
2021/01/10 07:03:57;;;;;;;8.63;3.28;;;;;;;-22.50;78.68;100917.44;4980913;28;20052;-62
2021/01/10 07:06:51;;;;;;;9.02;3.92;;;;;;;-22.50;78.54;100918.31;4991278;28;20058;-63
2021/01/10 07:09:54;;;;;;;6.22;3.20;;;;;;;-22.45;78.73;100918.63;4984861;28;20093;-63
2021/01/10 07:12:41;;;;;;;4.93;2.38;;;;;;;-22.39;79.47;100922.41;4985493;28;20073;-62
2021/01/10 07:15:28;;;;;;;10.75;4.40;;;;;;;-22.36;79.11;100909.34;4983583;28;20053;-63
2021/01/10 07:18:16;;;;;;;6.25;3.20;;;;;;;-22.35;77.94;100925.97;4991039;28;20050;-62
2021/01/10 07:21:02;;;;;;;7.47;3.85;;;;;;;-22.34;79.13;100923.59;4989961;28;20449;-63
2021/01/10 07:23:49;;;;;;;7.53;4.05;;;;;;;-22.39;78.53;100912.50;4989726;28;20445;-62
2021/01/10 07:26:44;;;;;;;10.57;3.50;;;;;;;-22.24;79.88;100925.09;4990424;28;20056;-62
2021/01/10 07:29:43;;;;;;;10.20;4.65;;;;;;;-22.17;80.17;100926.34;4991494;28;20054;-62
2021/01/10 07:32:36;;;;;;;10.27;4.00;;;;;;;-22.14;78.96;100927.44;5005285;28;20100;-62
2021/01/10 07:35:23;;;;;;;13.07;5.03;;;;;;;-22.22;78.52;100917.75;4991051;28;20493;-62
2021/01/10 07:38:10;;;;;;;6.70;3.08;;;;;;;-22.15;79.19;100928.19;4990081;28;20042;-63
2021/01/10 07:41:27;;;;;;;9.68;4.53;;;;;;;-22.13;79.85;100919.25;4990616;28;20077;-63
2021/01/10 07:44:17;;;;;;;10.15;4.18;;;;;;;-22.06;80.22;100925.47;4989022;28;20674;-62
2021/01/10 07:47:04;;;;;;;10.85;4.03;;;;;;;-22.02;79.62;100915.84;4983248;28;20053;-63
2021/01/10 07:49:56;;;;;;;12.70;4.35;;;;;;;-21.93;80.59;100919.69;4978711;28;20536;-62
2021/01/10 07:52:45;;;;;;;10.45;4.22;;;;;;;-21.81;80.21;100921.41;4986046;28;20054;-62
2021/01/10 07:55:33;;;;;;;7.60;3.83;;;;;;;-21.71;80.80;100926.97;4990141;28;20073;-62
2021/01/10 07:58:21;;;;;;;12.90;4.03;;;;;;;-21.60;79.86;100924.44;4990397;28;20060;-63
2021/01/10 08:01:07;;;;;;;8.82;3.67;;;;;;;-21.55;79.44;100922.25;4986035;28;20046;-63
2021/01/10 08:04:09;;;;;;;17.48;3.28;;;;;;;-21.41;79.52;100920.69;4983396;28;20046;-62
2021/01/10 08:06:57;;;;;;;7.25;3.35;;;;;;;-21.34;79.87;100921.22;4983195;28;20050;-63
2021/01/10 08:09:44;;;;;;;8.38;3.42;;;;;;;-21.26;80.53;100921.69;4975479;28;20101;-64
2021/01/10 08:12:32;;;;;;;8.00;3.03;;;;;;;-21.18;78.84;100927.13;4987089;28;20494;-62
2021/01/10 08:15:19;;;;;;;7.88;3.75;;;;;;;-21.16;79.99;100921.53;4986630;28;20069;-62
2021/01/10 08:18:05;;;;;;;8.48;3.88;;;;;;;-21.04;79.76;100921.44;4989520;28;20399;-62
2021/01/10 08:20:53;;;;;;;9.38;4.03;;;;;;;-20.99;80.04;100918.50;4985654;28;20134;-63
2021/01/10 08:23:42;;;;;;;11.65;3.60;;;;;;;-21.01;78.66;100915.06;4989799;28;20050;-62
2021/01/10 08:26:28;;;;;;;9.00;4.10;;;;;;;-20.90;80.00;100918.22;4987947;28;20075;-62
2021/01/10 08:29:15;;;;;;;10.07;5.28;;;;;;;-20.79;79.74;100923.88;4989561;28;20525;-62
2021/01/10 08:32:02;;;;;;;12.57;4.60;;;;;;;-20.68;79.85;100922.94;4989849;28;20071;-62
2021/01/10 08:34:52;;;;;;;10.88;4.15;;;;;;;-20.62;nan;100919.97;4989300;28;20518;-62
2021/01/10 08:37:38;;;;;;;8.80;3.92;;;;;;;-20.50;80.39;100923.25;4986222;28;20094;-62
2021/01/10 08:40:25;;;;;;;10.70;5.20;;;;;;;-20.40;80.49;100927.13;4984946;28;20077;-63
2021/01/10 08:43:11;;;;;;;9.75;4.35;;;;;;;-20.35;80.10;100924.16;4984354;28;20505;-62
2021/01/10 08:46:09;;;;;;;7.72;3.63;;;;;;;-20.25;79.94;100926.44;4984893;28;20061;-63
2021/01/10 08:48:56;;;;;;;9.75;4.40;;;;;;;-20.14;81.27;100926.22;4989271;28;20050;-64
2021/01/10 08:51:43;;;;;;;10.80;4.72;;;;;;;-20.05;81.53;100921.81;4984976;28;20104;-63
2021/01/10 08:54:30;;;;;;;9.10;4.20;;;;;;;-19.97;80.71;100925.63;4988800;28;20587;-62
2021/01/10 08:57:17;;;;;;;10.48;4.63;;;;;;;-19.90;80.29;100922.75;4989589;28;20055;-63
2021/01/10 09:00:05;;;;;;;7.28;3.83;;;;;;;-19.77;81.36;100925.19;4984555;28;20054;-63
2021/01/10 09:02:51;;;;;;;9.32;3.75;;;;;;;-19.65;80.82;100922.56;4989156;28;20502;-62
2021/01/10 09:05:38;;;;;;;9.57;3.97;;;;;;;-19.61;80.11;100926.09;4988541;28;20046;-63
2021/01/10 09:08:30;;;;;;;9.35;3.97;;;;;;;-19.51;79.95;100925.84;4989536;28;20046;-62
2021/01/10 09:11:20;;;;;;;7.13;3.90;;;;;;;-19.47;79.31;100931.09;4988881;28;20061;-63
2021/01/10 09:14:10;;;;;;;10.07;4.07;;;;;;;-19.43;80.43;100924.66;4981168;28;20090;-62
2021/01/10 09:16:59;;;;;;;10.68;4.40;;;;;;;-19.33;80.12;100931.03;4988517;28;20058;-66
2021/01/10 09:19:51;;;;;;;12.13;4.47;;;;;;;-19.34;80.35;100921.84;4990337;28;20046;-62
2021/01/10 09:22:38;;;;;;;12.13;4.35;;;;;;;-19.30;80.13;100937.06;4986794;28;20057;-63
2021/01/10 09:25:25;;;;;;;9.57;4.45;;;;;;;-19.25;79.91;100933.22;4983427;28;20097;-62
2021/01/10 09:28:17;;;;;;;9.45;5.07;;;;;;;-19.21;79.35;100935.13;4982406;28;20112;-63
2021/01/10 09:31:04;;;;;;;15.73;5.18;;;;;;;-19.15;80.43;100934.59;4999732;28;20048;-63
2021/01/10 09:33:54;;;;;;;9.70;4.82;;;;;;;-19.16;79.82;100937.88;4987910;28;20058;-63
2021/01/10 09:36:42;;;;;;;10.15;3.97;;;;;;;-19.12;80.03;100943.91;4978022;28;20851;-63
2021/01/10 09:39:45;;;;;;;8.70;3.70;;;;;;;-19.06;80.24;100944.25;4981723;28;20054;-62
2021/01/10 09:42:45;;;;;;;9.10;3.78;;;;;;;-19.00;79.43;100944.59;4989979;28;20054;-62
2021/01/10 09:45:35;;;;;;;8.85;4.22;;;;;;;-18.98;79.36;100941.41;4987449;28;20116;-63
2021/01/10 09:48:21;;;;;;;10.02;4.75;;;;;;;-19.01;79.79;100936.25;4988445;28;20116;-63
2021/01/10 09:51:08;;;;;;;9.65;4.00;;;;;;;-18.96;79.01;100936.50;4986339;28;20050;-63
2021/01/10 09:53:54;;;;;;;7.47;3.67;;;;;;;-18.84;80.02;100939.72;4988264;28;20060;-64
2021/01/10 09:56:49;;;;;;;8.10;4.20;;;;;;;-18.81;79.31;100939.88;4995879;28;20054;-64
2021/01/10 09:59:56;;;;;;;8.20;3.95;;;;;;;-18.79;79.57;100942.47;4970799;28;20098;-63
2021/01/10 10:02:44;;;;;;;11.02;4.05;;;;;;;-18.74;78.93;100941.09;4988609;28;20081;-63
2021/01/10 10:05:32;;;;;;;10.40;4.55;;;;;;;-18.76;80.01;100940.97;4982439;28;20058;-63
2021/01/10 10:08:19;;;;;;;10.02;3.50;;;;;;;-18.70;79.63;100938.84;4987995;28;20101;-64
2021/01/10 10:11:18;;;;;;;7.80;4.20;;;;;;;-18.66;79.96;100939.81;4985854;28;20086;-63
2021/01/10 10:14:07;;;;;;;8.45;4.13;;;;;;;-18.58;79.35;100942.75;4981616;28;20478;-62
2021/01/10 10:17:00;;;;;;;7.25;3.17;;;;;;;-18.56;79.28;100932.06;4987372;28;20050;-63
2021/01/10 10:19:47;;;;;;;11.13;4.72;;;;;;;-18.56;79.28;100936.22;4980105;28;20559;-63
2021/01/10 10:22:35;;;;;;;8.23;4.45;;;;;;;-18.47;80.40;100931.72;4981859;28;20046;-63
2021/01/10 10:25:21;;;;;;;14.57;3.75;;;;;;;-18.47;79.34;100937.56;4980020;28;20106;-63
2021/01/10 10:28:09;;;;;;;7.78;3.78;;;;;;;-18.45;80.32;100937.69;4995478;28;20050;-63
2021/01/10 10:30:55;;;;;;;9.68;3.70;;;;;;;-18.42;79.59;100931.19;4986940;28;20054;-64
2021/01/10 10:33:42;;;;;;;9.85;4.95;;;;;;;-18.29;79.04;100940.22;4983418;28;20421;-63
2021/01/10 10:36:28;;;;;;;10.73;4.63;;;;;;;-18.20;79.80;100935.72;4984366;28;20394;-63
2021/01/10 10:39:15;;;;;;;7.35;3.97;;;;;;;-18.17;79.86;100933.41;4985388;28;20042;-63
2021/01/10 10:42:03;;;;;;;6.93;3.35;;;;;;;-18.13;79.61;100930.31;4990478;28;20050;-63
2021/01/10 10:44:49;;;;;;;9.75;3.60;;;;;;;-18.14;78.97;100941.03;4990385;28;20066;-63
2021/01/10 10:47:36;;;;;;;8.88;4.20;;;;;;;-18.14;79.57;100935.19;4990870;28;20051;-63
2021/01/10 10:50:22;;;;;;;10.45;4.90;;;;;;;-18.24;78.72;100932.97;4986479;28;20751;-62
2021/01/10 10:53:09;;;;;;;8.10;3.58;;;;;;;-18.25;79.82;100932.13;4988026;28;20050;-63
2021/01/10 10:55:55;;;;;;;7.55;4.28;;;;;;;-18.27;79.01;100936.19;4985764;28;20078;-63
2021/01/10 10:58:42;;;;;;;12.82;4.40;;;;;;;-18.25;80.31;100942.13;4986834;28;20050;-63
2021/01/10 11:01:46;;;;;;;9.13;3.95;;;;;;;-18.27;79.15;100938.69;4987702;28;20051;-63
2021/01/10 11:04:32;;;;;;;8.60;4.18;;;;;;;-18.24;79.73;100940.47;4988075;28;20050;-63
2021/01/10 11:07:19;;;;;;;8.20;4.00;;;;;;;-18.26;79.54;100932.06;4990623;28;20051;-63
2021/01/10 11:10:06;;;;;;;8.35;4.13;;;;;;;-18.30;79.21;100938.50;4989724;28;20085;-64
2021/01/10 11:12:52;;;;;;;11.52;4.10;;;;;;;-18.30;79.46;100938.50;5004028;28;20121;-63
2021/01/10 11:15:39;;;;;;;7.97;3.75;;;;;;;-18.38;79.66;100939.72;4986731;28;20405;-63
2021/01/10 11:18:25;;;;;;;7.72;3.88;;;;;;;-18.37;80.56;100932.34;4989614;28;20104;-63
2021/01/10 11:21:12;;;;;;;10.02;4.40;;;;;;;-18.40;80.27;100942.13;4991910;28;20050;-63
2021/01/10 11:23:59;;;;;;;11.90;4.57;;;;;;;-18.41;81.04;100935.44;4984487;28;20061;-63
2021/01/10 11:26:46;;;;;;;8.18;4.35;;;;;;;-18.45;80.03;100938.53;4989626;28;20597;-63
2021/01/10 11:29:33;;;;;;;9.35;4.32;;;;;;;-18.53;80.87;100932.25;4989123;28;20069;-63
2021/01/10 11:32:19;;;;;;;9.93;5.35;;;;;;;-18.51;80.79;100945.69;4988521;28;20165;-64
2021/01/10 11:35:06;;;;;;;11.48;4.85;;;;;;;-18.53;81.10;100941.38;4985377;28;20572;-63
2021/01/10 11:37:54;;;;;;;10.82;4.85;;;;;;;-18.57;80.92;100951.94;4988640;28;20058;-63
2021/01/10 11:40:40;;;;;;;8.05;4.40;;;;;;;-18.56;81.21;100941.19;4982013;28;20050;-63
2021/01/10 11:43:27;;;;;;;7.90;4.68;;;;;;;-18.59;80.98;100934.41;4981736;28;20130;-63
2021/01/10 11:46:14;;;;;;;10.05;4.03;;;;;;;-18.63;80.67;100942.50;4998521;28;20177;-63
2021/01/10 11:49:00;;;;;;;11.27;4.72;;;;;;;-18.65;80.47;100941.56;4983402;28;20560;-63
2021/01/10 11:51:48;;;;;;;11.13;4.80;;;;;;;-18.66;81.40;100938.19;4983918;28;20101;-63
2021/01/10 11:54:34;;;;;;;10.98;5.32;;;;;;;-18.67;81.12;100938.97;4996637;28;20099;-63
2021/01/10 11:57:21;;;;;;;10.20;4.07;;;;;;;-18.67;81.30;100936.47;4980413;28;20058;-64
2021/01/10 12:00:08;;;;;;;8.85;4.47;;;;;;;-18.66;81.89;100932.34;4987865;28;20086;-63
2021/01/10 12:02:54;;;;;;;7.50;4.40;;;;;;;-18.67;80.65;100933.13;4987903;28;20035;-63
2021/01/10 12:05:41;;;;;;;8.52;4.28;;;;;;;-18.69;81.66;100928.09;4980318;28;20065;-63
2021/01/10 12:08:28;;;;;;;12.55;4.88;;;;;;;-18.73;81.69;100936.19;4987114;28;20401;-63
2021/01/10 12:11:16;;;;;;;10.23;4.47;;;;;;;-18.71;81.17;100932.13;4983519;28;20058;-63
2021/01/10 12:14:02;;;;;;;12.35;4.70;;;;;;;-18.73;81.25;100930.34;4987391;28;20046;-63
2021/01/10 12:16:48;;;;;;;9.95;4.72;;;;;;;-18.70;82.10;100926.38;4983958;28;20057;-64
2021/01/10 12:19:35;;;;;;;8.55;4.35;;;;;;;-18.71;81.22;100929.63;4983806;28;20483;-63
2021/01/10 12:22:21;;;;;;;10.48;3.90;;;;;;;-18.71;82.23;100921.28;4983805;28;20133;-63
2021/01/10 12:25:09;;;;;;;9.70;3.75;;;;;;;-18.70;82.44;100925.50;4983322;28;20050;-63
2021/01/10 12:27:55;;;;;;;11.43;4.72;;;;;;;-18.68;81.42;100923.97;4987237;28;20425;-63
2021/01/10 12:30:42;;;;;;;10.07;4.30;;;;;;;-18.76;81.48;100917.69;4983582;28;20050;-63
2021/01/10 12:33:28;;;;;;;9.30;3.95;;;;;;;-18.74;82.20;100923.63;4982819;28;20054;-64
2021/01/10 12:36:15;;;;;;;9.75;4.53;;;;;;;-18.73;82.37;100923.72;4984154;28;20135;-63
2021/01/10 12:39:02;;;;;;;11.15;6.05;;;;;;;-18.74;81.68;100921.13;4988767;28;20429;-64
2021/01/10 12:41:49;;;;;;;8.25;3.83;;;;;;;-18.76;82.51;100911.06;4988386;28;20629;-63
2021/01/10 12:44:36;;;;;;;10.02;4.95;;;;;;;-18.76;82.40;100925.16;4978427;28;20668;-63
2021/01/10 12:47:22;;;;;;;12.00;4.65;;;;;;;-18.76;81.39;100930.16;5000665;28;20337;-62
2021/01/10 12:50:10;;;;;;;14.35;5.80;;;;;;;-18.82;82.47;100927.31;4980379;28;20057;-63
2021/01/10 12:52:56;;;;;;;10.38;5.10;;;;;;;-18.82;81.72;100917.34;4988313;28;20117;-63